St. John's International Airport

CYYT | YYT

St. John's , Newfoundland-and-Labrador , Canada

Thursday, April 2nd, 2020 | 15:14

Weather

CYYT 021700Z 08010KT 1/8SM R11/0800FT/N R16/1000FT/N -DZ FG VV002 02/02 A3014 RMK FG8 SLP216

Charts

No Charts Available

Gates

18 Available

Runways

3 Available

Events

No events for this airport


New event